sensor_id;sensor_type;location;lat;lon;timestamp;pressure;altitude;pressure_sealevel;temperature;humidity
34034;BME280;63481;52.588;22.472;2022-10-28T00:00:32;101297.78;;;6.68;99.59
34034;BME280;63481;52.588;22.472;2022-10-28T00:01:24;101300.95;;;6.71;99.58
34034;BME280;63481;52.588;22.472;2022-10-28T00:02:14;101305.25;;;6.72;99.59
34034;BME280;63481;52.588;22.472;2022-10-28T00:03:05;101300.97;;;6.75;99.58
34034;BME280;63481;52.588;22.472;2022-10-28T00:03:57;101302.34;;;6.79;99.63
34034;BME280;63481;52.588;22.472;2022-10-28T00:04:49;101300.36;;;6.81;99.60
34034;BME280;63481;52.588;22.472;2022-10-28T00:05:39;101301.37;;;6.84;99.59
34034;BME280;63481;52.588;22.472;2022-10-28T00:06:31;101301.73;;;6.89;99.62
34034;BME280;63481;52.588;22.472;2022-10-28T00:07:21;101302.26;;;6.93;99.62
34034;BME280;63481;52.588;22.472;2022-10-28T00:08:11;101290.50;;;6.95;99.62
34034;BME280;63481;52.588;22.472;2022-10-28T00:09:03;101303.24;;;6.96;99.63
34034;BME280;63481;52.588;22.472;2022-10-28T00:09:53;101297.45;;;6.96;99.64
34034;BME280;63481;52.588;22.472;2022-10-28T00:10:43;101304.07;;;6.92;99.62
34034;BME280;63481;52.588;22.472;2022-10-28T00:11:34;101300.72;;;6.90;99.64
34034;BME280;63481;52.588;22.472;2022-10-28T00:12:25;101299.91;;;6.90;99.63
34034;BME280;63481;52.588;22.472;2022-10-28T00:13:15;101304.20;;;6.87;99.64
34034;BME280;63481;52.588;22.472;2022-10-28T00:14:05;101296.25;;;6.87;99.66
34034;BME280;63481;52.588;22.472;2022-10-28T00:14:56;101295.41;;;6.90;99.65
34034;BME280;63481;52.588;22.472;2022-10-28T00:15:46;101298.28;;;6.93;99.65
34034;BME280;63481;52.588;22.472;2022-10-28T00:16:37;101297.44;;;6.92;99.64
34034;BME280;63481;52.588;22.472;2022-10-28T00:17:27;101294.57;;;6.86;99.66
34034;BME280;63481;52.588;22.472;2022-10-28T00:18:18;101290.95;;;6.87;99.64
34034;BME280;63481;52.588;22.472;2022-10-28T00:19:09;101288.11;;;6.84;99.66
34034;BME280;63481;52.588;22.472;2022-10-28T00:20:00;101286.48;;;6.91;99.66
34034;BME280;63481;52.588;22.472;2022-10-28T00:20:50;101281.53;;;6.96;99.65
34034;BME280;63481;52.588;22.472;2022-10-28T00:21:41;101284.54;;;6.97;99.65
34034;BME280;63481;52.588;22.472;2022-10-28T00:22:32;101284.19;;;6.92;99.67
34034;BME280;63481;52.588;22.472;2022-10-28T00:23:22;101282.51;;;6.91;99.67
34034;BME280;63481;52.588;22.472;2022-10-28T00:24:13;101281.53;;;6.92;99.67
34034;BME280;63481;52.588;22.472;2022-10-28T00:25:04;101283.34;;;6.92;99.67
34034;BME280;63481;52.588;22.472;2022-10-28T00:25:54;101280.03;;;6.94;99.67
34034;BME280;63481;52.588;22.472;2022-10-28T00:26:45;101277.59;;;7.00;99.66
34034;BME280;63481;52.588;22.472;2022-10-28T00:27:35;101274.11;;;7.04;99.68
34034;BME280;63481;52.588;22.472;2022-10-28T00:28:26;101277.28;;;7.07;99.69
34034;BME280;63481;52.588;22.472;2022-10-28T00:29:17;101272.34;;;7.12;99.69
34034;BME280;63481;52.588;22.472;2022-10-28T00:30:09;101275.82;;;7.13;99.69
34034;BME280;63481;52.588;22.472;2022-10-28T00:31:05;101271.70;;;7.14;99.71
34034;BME280;63481;52.588;22.472;2022-10-28T00:31:56;101272.37;;;7.20;99.70
34034;BME280;63481;52.588;22.472;2022-10-28T00:32:47;101267.76;;;7.27;99.70
34034;BME280;63481;52.588;22.472;2022-10-28T00:33:37;101269.12;;;7.31;99.72
34034;BME280;63481;52.588;22.472;2022-10-28T00:34:28;101258.33;;;7.32;99.71
34034;BME280;63481;52.588;22.472;2022-10-28T00:35:18;101260.81;;;7.30;99.74
34034;BME280;63481;52.588;22.472;2022-10-28T00:36:15;101263.64;;;7.28;99.74
34034;BME280;63481;52.588;22.472;2022-10-28T00:37:02;101260.64;;;7.27;99.74
34034;BME280;63481;52.588;22.472;2022-10-28T00:37:52;101264.27;;;7.26;99.75
34034;BME280;63481;52.588;22.472;2022-10-28T00:38:45;101265.34;;;7.41;99.83
34034;BME280;63481;52.588;22.472;2022-10-28T00:39:35;101265.34;;;7.41;99.83
34034;BME280;63481;52.588;22.472;2022-10-28T00:40:26;101262.20;;;7.42;99.73
34034;BME280;63481;52.588;22.472;2022-10-28T00:41:18;101263.48;;;7.38;99.75
34034;BME280;63481;52.588;22.472;2022-10-28T00:42:09;101265.62;;;7.30;99.69
34034;BME280;63481;52.588;22.472;2022-10-28T00:43:01;101265.62;;;7.30;99.69
34034;BME280;63481;52.588;22.472;2022-10-28T00:43:52;101267.62;;;7.28;99.77
34034;BME280;63481;52.588;22.472;2022-10-28T00:45:37;101272.41;;;7.25;99.76
34034;BME280;63481;52.588;22.472;2022-10-28T00:46:38;101252.78;;;7.13;99.73
34034;BME280;63481;52.588;22.472;2022-10-28T00:48:27;101259.10;;;7.16;99.79
34034;BME280;63481;52.588;22.472;2022-10-28T00:49:23;101264.41;;;7.16;99.77
34034;BME280;63481;52.588;22.472;2022-10-28T00:50:37;101266.89;;;7.18;99.76
34034;BME280;63481;52.588;22.472;2022-10-28T00:51:25;101259.10;;;7.16;99.77
34034;BME280;63481;52.588;22.472;2022-10-28T00:52:19;101261.27;;;7.17;99.75
34034;BME280;63481;52.588;22.472;2022-10-28T00:53:16;101257.43;;;7.15;99.76
34034;BME280;63481;52.588;22.472;2022-10-28T00:54:06;101261.90;;;7.15;99.75
34034;BME280;63481;52.588;22.472;2022-10-28T00:54:57;101258.76;;;7.15;99.76
34034;BME280;63481;52.588;22.472;2022-10-28T00:55:48;101254.29;;;7.16;99.77
34034;BME280;63481;52.588;22.472;2022-10-28T00:56:42;101254.29;;;7.16;99.77
34034;BME280;63481;52.588;22.472;2022-10-28T00:57:35;101252.96;;;7.16;99.74
34034;BME280;63481;52.588;22.472;2022-10-28T00:58:26;101255.13;;;7.16;99.74
34034;BME280;63481;52.588;22.472;2022-10-28T00:59:28;101254.78;;;7.15;99.74
34034;BME280;63481;52.588;22.472;2022-10-28T01:00:11;101254.78;;;7.15;99.74
34034;BME280;63481;52.588;22.472;2022-10-28T01:01:02;101252.61;;;7.15;99.74
34034;BME280;63481;52.588;22.472;2022-10-28T01:01:52;101248.32;;;7.14;99.74
34034;BME280;63481;52.588;22.472;2022-10-28T01:02:46;101246.50;;;7.14;99.74
34034;BME280;63481;52.588;22.472;2022-10-28T01:03:36;101247.48;;;7.13;99.72
34034;BME280;63481;52.588;22.472;2022-10-28T01:04:27;101242.53;;;7.14;99.73
34034;BME280;63481;52.588;22.472;2022-10-28T01:05:20;101241.17;;;7.10;99.71
34034;BME280;63481;52.588;22.472;2022-10-28T01:06:11;101248.81;;;7.13;99.72
34034;BME280;63481;52.588;22.472;2022-10-28T01:07:02;101245.00;;;7.12;99.72
34034;BME280;63481;52.588;22.472;2022-10-28T01:07:56;101246.96;;;7.10;99.72
34034;BME280;63481;52.588;22.472;2022-10-28T01:08:46;101247.27;;;7.07;99.71
34034;BME280;63481;52.588;22.472;2022-10-28T01:09:37;101243.95;;;7.05;99.71
34034;BME280;63481;52.588;22.472;2022-10-28T01:10:49;101243.95;;;7.05;99.71
34034;BME280;63481;52.588;22.472;2022-10-28T01:15:29;101246.47;;;7.06;99.73
34034;BME280;63481;52.588;22.472;2022-10-28T01:16:48;101248.60;;;7.07;100.00
34034;BME280;63481;52.588;22.472;2022-10-28T01:21:30;101246.13;;;7.09;99.74
34034;BME280;63481;52.588;22.472;2022-10-28T01:23:21;101246.47;;;7.06;99.74
34034;BME280;63481;52.588;22.472;2022-10-28T01:24:35;101235.30;;;6.99;99.75
34034;BME280;63481;52.588;22.472;2022-10-28T01:25:34;101244.27;;;6.98;99.69
34034;BME280;63481;52.588;22.472;2022-10-28T01:32:08;101242.11;;;7.01;99.75
34034;BME280;63481;52.588;22.472;2022-10-28T01:35:11;101244.77;;;7.01;99.77
34034;BME280;63481;52.588;22.472;2022-10-28T01:36:06;101241.13;;;7.02;99.76
34034;BME280;63481;52.588;22.472;2022-10-28T01:37:16;101244.94;;;7.00;100.00
34034;BME280;63481;52.588;22.472;2022-10-28T01:38:24;101242.45;;;6.98;99.78
34034;BME280;63481;52.588;22.472;2022-10-28T01:39:46;101239.28;;;6.99;99.64
34034;BME280;63481;52.588;22.472;2022-10-28T01:41:36;101238.13;;;7.01;99.77
34034;BME280;63481;52.588;22.472;2022-10-28T01:42:33;101236.49;;;7.00;99.78
34034;BME280;63481;52.588;22.472;2022-10-28T01:45:29;101226.06;;;7.07;99.76
34034;BME280;63481;52.588;22.472;2022-10-28T01:46:25;101224.45;;;7.14;99.78
34034;BME280;63481;52.588;22.472;2022-10-28T01:47:28;101227.77;;;7.16;99.79
34034;BME280;63481;52.588;22.472;2022-10-28T01:48:21;101229.12;;;7.20;99.77
34034;BME280;63481;52.588;22.472;2022-10-28T01:49:24;101225.14;;;7.24;99.77
34034;BME280;63481;52.588;22.472;2022-10-28T01:50:35;101210.84;;;7.13;99.78
34034;BME280;63481;52.588;22.472;2022-10-28T01:51:29;101209.68;;;7.15;99.77
34034;BME280;63481;52.588;22.472;2022-10-28T01:52:23;101230.47;;;7.32;99.79
34034;BME280;63481;52.588;22.472;2022-10-28T01:53:17;101230.81;;;7.33;99.78
34034;BME280;63481;52.588;22.472;2022-10-28T01:54:10;101233.30;;;7.31;99.80
34034;BME280;63481;52.588;22.472;2022-10-28T01:55:14;101229.32;;;7.31;99.48
34034;BME280;63481;52.588;22.472;2022-10-28T01:56:06;101229.32;;;7.31;99.48
34034;BME280;63481;52.588;22.472;2022-10-28T01:56:58;101225.34;;;7.31;99.82
34034;BME280;63481;52.588;22.472;2022-10-28T01:57:51;101230.81;;;7.33;99.80
34034;BME280;63481;52.588;22.472;2022-10-28T01:58:44;101232.45;;;7.34;99.82
34034;BME280;63481;52.588;22.472;2022-10-28T01:59:36;101224.18;;;7.37;99.81
34034;BME280;63481;52.588;22.472;2022-10-28T02:00:30;101234.99;;;7.44;99.82
34034;BME280;63481;52.588;22.472;2022-10-28T02:01:22;101227.86;;;7.44;99.82
34034;BME280;63481;52.588;22.472;2022-10-28T02:02:16;101229.02;;;7.46;99.81
34034;BME280;63481;52.588;22.472;2022-10-28T02:03:08;101235.66;;;7.46;99.82
34034;BME280;63481;52.588;22.472;2022-10-28T02:03:58;101228.38;;;7.52;99.88
34034;BME280;63481;52.588;22.472;2022-10-28T02:04:48;101228.38;;;7.52;99.88
34034;BME280;63481;52.588;22.472;2022-10-28T02:06:37;101226.56;;;7.52;99.83
34034;BME280;63481;52.588;22.472;2022-10-28T02:07:27;101225.72;;;7.52;99.83
34034;BME280;63481;52.588;22.472;2022-10-28T02:09:27;101227.02;;;7.48;99.84
34034;BME280;63481;52.588;22.472;2022-10-28T02:10:18;101225.86;;;7.50;99.84
34034;BME280;63481;52.588;22.472;2022-10-28T02:11:26;101203.61;;;7.39;99.90
34034;BME280;63481;52.588;22.472;2022-10-28T02:13:20;101224.37;;;7.48;99.85
34034;BME280;63481;52.588;22.472;2022-10-28T02:15:24;101221.39;;;7.51;99.89
34034;BME280;63481;52.588;22.472;2022-10-28T02:18:34;101223.91;;;7.52;99.91
34034;BME280;63481;52.588;22.472;2022-10-28T02:19:38;101220.41;;;7.52;99.91
34034;BME280;63481;52.588;22.472;2022-10-28T02:20:36;101221.73;;;7.52;99.92
34034;BME280;63481;52.588;22.472;2022-10-28T02:22:44;101216.11;;;7.55;99.95
34034;BME280;63481;52.588;22.472;2022-10-28T02:23:44;101216.59;;;7.58;99.97
34034;BME280;63481;52.588;22.472;2022-10-28T02:25:03;101221.09;;;7.62;99.98
34034;BME280;63481;52.588;22.472;2022-10-28T02:25:55;101220.11;;;7.63;100.00
34034;BME280;63481;52.588;22.472;2022-10-28T02:26:51;101212.31;;;7.65;100.00
34034;BME280;63481;52.588;22.472;2022-10-28T02:28:03;101210.98;;;7.65;100.00
34034;BME280;63481;52.588;22.472;2022-10-28T02:29:03;101213.45;;;7.67;100.00
34034;BME280;63481;52.588;22.472;2022-10-28T02:31:00;101214.95;;;7.69;100.00
34034;BME280;63481;52.588;22.472;2022-10-28T02:31:54;101218.12;;;7.73;100.00
34034;BME280;63481;52.588;22.472;2022-10-28T02:32:52;101215.30;;;7.78;100.00
34034;BME280;63481;52.588;22.472;2022-10-28T02:33:43;101211.49;;;7.81;100.00
34034;BME280;63481;52.588;22.472;2022-10-28T02:34:38;101213.82;;;7.84;100.00
34034;BME280;63481;52.588;22.472;2022-10-28T02:35:45;101207.84;;;7.86;100.00
34034;BME280;63481;52.588;22.472;2022-10-28T02:36:38;101210.18;;;7.85;100.00
34034;BME280;63481;52.588;22.472;2022-10-28T02:37:30;101210.18;;;7.85;100.00
34034;BME280;63481;52.588;22.472;2022-10-28T02:38:29;101207.52;;;7.85;100.00
34034;BME280;63481;52.588;22.472;2022-10-28T02:39:19;101209.16;;;7.86;100.00
34034;BME280;63481;52.588;22.472;2022-10-28T02:40:13;101204.52;;;7.88;100.00
34034;BME280;63481;52.588;22.472;2022-10-28T02:41:18;101210.16;;;7.89;100.00
34034;BME280;63481;52.588;22.472;2022-10-28T02:42:01;101206.84;;;7.91;100.00
34034;BME280;63481;52.588;22.472;2022-10-28T02:42:55;101211.33;;;7.95;100.00
34034;BME280;63481;52.588;22.472;2022-10-28T02:43:53;101207.20;;;7.96;100.00
34034;BME280;63481;52.588;22.472;2022-10-28T02:44:43;101213.48;;;7.99;100.00
34034;BME280;63481;52.588;22.472;2022-10-28T02:45:42;101208.00;;;7.97;100.00
34034;BME280;63481;52.588;22.472;2022-10-28T02:46:35;101210.52;;;7.98;100.00
34034;BME280;63481;52.588;22.472;2022-10-28T02:47:30;101211.98;;;7.97;100.00
34034;BME280;63481;52.588;22.472;2022-10-28T02:48:28;101214.64;;;7.97;100.00
34034;BME280;63481;52.588;22.472;2022-10-28T02:49:19;101210.98;;;7.94;100.00
34034;BME280;63481;52.588;22.472;2022-10-28T02:50:09;101215.97;;;7.89;100.00
34034;BME280;63481;52.588;22.472;2022-10-28T02:51:10;101213.00;;;7.88;100.00
34034;BME280;63481;52.588;22.472;2022-10-28T02:52:03;101215.49;;;7.85;100.00
34034;BME280;63481;52.588;22.472;2022-10-28T02:52:57;101208.00;;;7.89;100.00
34034;BME280;63481;52.588;22.472;2022-10-28T02:54:42;101208.00;;;7.89;100.00
34034;BME280;63481;52.588;22.472;2022-10-28T02:54:53;101205.19;;;7.86;100.00
34034;BME280;63481;52.588;22.472;2022-10-28T02:55:48;101202.03;;;7.87;100.00
34034;BME280;63481;52.588;22.472;2022-10-28T02:56:50;101208.02;;;7.85;100.00
34034;BME280;63481;52.588;22.472;2022-10-28T02:57:41;101208.02;;;7.85;100.00
34034;BME280;63481;52.588;22.472;2022-10-28T02:58:39;101214.80;;;7.83;100.00
34034;BME280;63481;52.588;22.472;2022-10-28T02:59:29;101215.33;;;7.83;100.00
34034;BME280;63481;52.588;22.472;2022-10-28T03:00:21;101212.67;;;7.83;100.00
34034;BME280;63481;52.588;22.472;2022-10-28T03:01:13;101211.83;;;7.82;100.00
34034;BME280;63481;52.588;22.472;2022-10-28T03:02:04;101210.34;;;7.79;100.00
34034;BME280;63481;52.588;22.472;2022-10-28T03:02:54;101204.34;;;7.77;100.00
34034;BME280;63481;52.588;22.472;2022-10-28T03:03:45;101209.16;;;7.78;100.00
34034;BME280;63481;52.588;22.472;2022-10-28T03:04:35;101212.66;;;7.78;100.00
34034;BME280;63481;52.588;22.472;2022-10-28T03:05:26;101213.00;;;7.79;100.00
34034;BME280;63481;52.588;22.472;2022-10-28T03:06:16;101213.48;;;7.79;100.00
34034;BME280;63481;52.588;22.472;2022-10-28T03:07:06;101210.66;;;7.80;100.00
34034;BME280;63481;52.588;22.472;2022-10-28T03:07:56;101209.33;;;7.80;100.00
34034;BME280;63481;52.588;22.472;2022-10-28T03:08:47;101211.98;;;7.80;100.00
34034;BME280;63481;52.588;22.472;2022-10-28T03:09:37;101204.18;;;7.83;100.00
34034;BME280;63481;52.588;22.472;2022-10-28T03:10:27;101203.03;;;7.82;100.00
34034;BME280;63481;52.588;22.472;2022-10-28T03:11:18;101203.37;;;7.83;100.00
34034;BME280;63481;52.588;22.472;2022-10-28T03:12:09;101204.85;;;7.81;100.00
34034;BME280;63481;52.588;22.472;2022-10-28T03:12:59;101206.36;;;7.79;100.00
34034;BME280;63481;52.588;22.472;2022-10-28T03:13:50;101203.37;;;7.83;100.00
34034;BME280;63481;52.588;22.472;2022-10-28T03:14:40;101202.05;;;7.83;100.00
34034;BME280;63481;52.588;22.472;2022-10-28T03:15:30;101206.17;;;7.81;100.00
34034;BME280;63481;52.588;22.472;2022-10-28T03:16:21;101205.52;;;7.79;100.00
34034;BME280;63481;52.588;22.472;2022-10-28T03:17:11;101207.69;;;7.79;100.00
34034;BME280;63481;52.588;22.472;2022-10-28T03:18:02;101204.02;;;7.80;100.00
34034;BME280;63481;52.588;22.472;2022-10-28T03:18:52;101206.17;;;7.81;100.00
34034;BME280;63481;52.588;22.472;2022-10-28T03:19:43;101202.52;;;7.78;100.00
34034;BME280;63481;52.588;22.472;2022-10-28T03:20:33;101205.19;;;7.74;100.00
34034;BME280;63481;52.588;22.472;2022-10-28T03:21:23;101208.48;;;7.72;100.00
34034;BME280;63481;52.588;22.472;2022-10-28T03:22:13;101210.34;;;7.71;100.00
34034;BME280;63481;52.588;22.472;2022-10-28T03:23:04;101205.02;;;7.71;100.00
34034;BME280;63481;52.588;22.472;2022-10-28T03:23:54;101201.84;;;7.72;100.00
34034;BME280;63481;52.588;22.472;2022-10-28T03:24:45;101207.99;;;7.72;100.00
34034;BME280;63481;52.588;22.472;2022-10-28T03:25:35;101205.69;;;7.73;100.00
34034;BME280;63481;52.588;22.472;2022-10-28T03:26:25;101210.01;;;7.74;100.00
34034;BME280;63481;52.588;22.472;2022-10-28T03:27:15;101210.32;;;7.75;100.00
34034;BME280;63481;52.588;22.472;2022-10-28T03:28:06;101209.83;;;7.76;100.00
34034;BME280;63481;52.588;22.472;2022-10-28T03:28:56;101210.16;;;7.81;100.00
34034;BME280;63481;52.588;22.472;2022-10-28T03:29:47;101208.69;;;7.83;100.00
34034;BME280;63481;52.588;22.472;2022-10-28T03:30:37;101199.05;;;7.82;100.00
34034;BME280;63481;52.588;22.472;2022-10-28T03:31:28;101204.85;;;7.81;100.00
34034;BME280;63481;52.588;22.472;2022-10-28T03:32:18;101206.67;;;7.80;100.00
34034;BME280;63481;52.588;22.472;2022-10-28T03:33:09;101210.51;;;7.82;100.00
34034;BME280;63481;52.588;22.472;2022-10-28T03:33:59;101214.16;;;7.85;100.00
34034;BME280;63481;52.588;22.472;2022-10-28T03:34:50;101207.52;;;7.89;100.00
34034;BME280;63481;52.588;22.472;2022-10-28T03:35:40;101207.52;;;7.89;100.00
34034;BME280;63481;52.588;22.472;2022-10-28T03:36:31;101207.86;;;7.90;100.00
34034;BME280;63481;52.588;22.472;2022-10-28T03:37:21;101202.86;;;7.91;100.00
34034;BME280;63481;52.588;22.472;2022-10-28T03:38:11;101208.69;;;7.91;100.00
34034;BME280;63481;52.588;22.472;2022-10-28T03:39:02;101206.86;;;7.87;100.00
34034;BME280;63481;52.588;22.472;2022-10-28T03:39:52;101203.54;;;7.85;100.00
34034;BME280;63481;52.588;22.472;2022-10-28T03:40:43;101206.02;;;7.87;100.00
34034;BME280;63481;52.588;22.472;2022-10-28T03:41:33;101204.34;;;7.86;100.00
34034;BME280;63481;52.588;22.472;2022-10-28T03:42:24;101203.86;;;7.86;100.00
34034;BME280;63481;52.588;22.472;2022-10-28T03:43:15;101207.52;;;7.89;100.00
34034;BME280;63481;52.588;22.472;2022-10-28T03:44:06;101204.34;;;7.86;100.00
34034;BME280;63481;52.588;22.472;2022-10-28T03:44:56;101196.05;;;7.80;100.00
34034;BME280;63481;52.588;22.472;2022-10-28T03:45:46;101200.03;;;7.80;100.00
34034;BME280;63481;52.588;22.472;2022-10-28T03:46:37;101198.72;;;7.85;100.00
34034;BME280;63481;52.588;22.472;2022-10-28T03:47:27;101199.88;;;7.82;100.00
34034;BME280;63481;52.588;22.472;2022-10-28T03:48:17;101200.52;;;7.80;100.00
34034;BME280;63481;52.588;22.472;2022-10-28T03:49:08;101201.54;;;7.79;100.00
34034;BME280;63481;52.588;22.472;2022-10-28T03:49:58;101203.53;;;7.77;100.00
34034;BME280;63481;52.588;22.472;2022-10-28T03:50:53;101202.52;;;7.78;100.00
34034;BME280;63481;52.588;22.472;2022-10-28T03:51:43;101202.03;;;7.78;100.00
34034;BME280;63481;52.588;22.472;2022-10-28T03:52:34;101202.70;;;7.76;100.00
34034;BME280;63481;52.588;22.472;2022-10-28T03:53:24;101203.53;;;7.77;100.00
34034;BME280;63481;52.588;22.472;2022-10-28T03:54:14;101207.83;;;7.78;100.00
34034;BME280;63481;52.588;22.472;2022-10-28T03:55:05;101213.47;;;7.75;100.00
34034;BME280;63481;52.588;22.472;2022-10-28T03:55:56;101212.83;;;7.77;100.00
34034;BME280;63481;52.588;22.472;2022-10-28T03:56:47;101212.47;;;7.80;100.00
34034;BME280;63481;52.588;22.472;2022-10-28T03:57:38;101213.98;;;7.78;100.00
34034;BME280;63481;52.588;22.472;2022-10-28T03:58:28;101215.14;;;7.76;100.00
34034;BME280;63481;52.588;22.472;2022-10-28T03:59:19;101214.48;;;7.74;100.00
34034;BME280;63481;52.588;22.472;2022-10-28T04:00:09;101213.16;;;7.74;100.00
34034;BME280;63481;52.588;22.472;2022-10-28T04:01:03;101214.30;;;7.67;100.00
34034;BME280;63481;52.588;22.472;2022-10-28T04:01:54;101214.30;;;7.67;100.00
34034;BME280;63481;52.588;22.472;2022-10-28T04:02:52;101202.34;;;7.59;100.00
34034;BME280;63481;52.588;22.472;2022-10-28T04:03:41;101214.30;;;7.67;100.00
34034;BME280;63481;52.588;22.472;2022-10-28T04:04:31;101208.15;;;7.67;100.00
34034;BME280;63481;52.588;22.472;2022-10-28T04:05:22;101214.30;;;7.67;100.00
34034;BME280;63481;52.588;22.472;2022-10-28T04:06:12;101211.15;;;7.68;100.00
34034;BME280;63481;52.588;22.472;2022-10-28T04:07:03;101212.13;;;7.67;100.00
34034;BME280;63481;52.588;22.472;2022-10-28T04:07:53;101209.66;;;7.65;100.00
34034;BME280;63481;52.588;22.472;2022-10-28T04:08:44;101211.96;;;7.64;100.00
34034;BME280;63481;52.588;22.472;2022-10-28T04:09:34;101206.16;;;7.65;100.00
34034;BME280;63481;52.588;22.472;2022-10-28T04:10:25;101210.14;;;7.65;100.00
34034;BME280;63481;52.588;22.472;2022-10-28T04:11:15;101207.48;;;7.65;100.00
34034;BME280;63481;52.588;22.472;2022-10-28T04:12:05;101206.16;;;7.65;100.00
34034;BME280;63481;52.588;22.472;2022-10-28T04:13:01;101206.16;;;7.65;100.00
34034;BME280;63481;52.588;22.472;2022-10-28T04:13:51;101207.67;;;7.63;100.00
34034;BME280;63481;52.588;22.472;2022-10-28T04:14:42;101206.98;;;7.61;100.00
34034;BME280;63481;52.588;22.472;2022-10-28T04:15:33;101207.33;;;7.62;100.00
34034;BME280;63481;52.588;22.472;2022-10-28T04:16:23;101209.00;;;7.63;100.00
34034;BME280;63481;52.588;22.472;2022-10-28T04:17:13;101205.67;;;7.65;100.00
34034;BME280;63481;52.588;22.472;2022-10-28T04:18:03;101203.02;;;7.65;100.00
34034;BME280;63481;52.588;22.472;2022-10-28T04:18:54;101205.67;;;7.65;100.00
34034;BME280;63481;52.588;22.472;2022-10-28T04:19:44;101210.14;;;7.65;100.00
34034;BME280;63481;52.588;22.472;2022-10-28T04:20:35;101199.18;;;7.64;100.00
34034;BME280;63481;52.588;22.472;2022-10-28T04:21:25;101197.85;;;7.64;100.00
34034;BME280;63481;52.588;22.472;2022-10-28T04:22:16;101195.55;;;7.65;100.00
34034;BME280;63481;52.588;22.472;2022-10-28T04:23:05;101205.19;;;7.66;100.00
34034;BME280;63481;52.588;22.472;2022-10-28T04:23:56;101198.20;;;7.65;100.00
34034;BME280;63481;52.588;22.472;2022-10-28T04:24:46;101202.18;;;7.65;100.00
34034;BME280;63481;52.588;22.472;2022-10-28T04:25:36;101203.02;;;7.65;100.00
34034;BME280;63481;52.588;22.472;2022-10-28T04:26:27;101200.36;;;7.65;100.00
34034;BME280;63481;52.588;22.472;2022-10-28T04:27:20;101203.85;;;7.66;100.00
34034;BME280;63481;52.588;22.472;2022-10-28T04:28:11;101203.67;;;7.67;100.00
34034;BME280;63481;52.588;22.472;2022-10-28T04:29:01;101201.86;;;7.68;100.00
34034;BME280;63481;52.588;22.472;2022-10-28T04:29:52;101199.20;;;7.68;100.00
34034;BME280;63481;52.588;22.472;2022-10-28T04:30:42;101200.04;;;7.68;100.00
34034;BME280;63481;52.588;22.472;2022-10-28T04:31:32;101197.20;;;7.70;100.00
34034;BME280;63481;52.588;22.472;2022-10-28T04:32:23;101207.52;;;7.69;100.00
34034;BME280;63481;52.588;22.472;2022-10-28T04:33:13;101205.02;;;7.71;100.00
34034;BME280;63481;52.588;22.472;2022-10-28T04:34:03;101203.37;;;7.74;100.00
34034;BME280;63481;52.588;22.472;2022-10-28T04:34:54;101198.72;;;7.76;100.00
34034;BME280;63481;52.588;22.472;2022-10-28T04:35:44;101199.20;;;7.76;100.00
34034;BME280;63481;52.588;22.472;2022-10-28T04:36:34;101201.03;;;7.75;100.00
34034;BME280;63481;52.588;22.472;2022-10-28T04:37:25;101203.69;;;7.75;100.00
34034;BME280;63481;52.588;22.472;2022-10-28T04:38:15;101204.70;;;7.74;100.00
34034;BME280;63481;52.588;22.472;2022-10-28T04:39:05;101205.50;;;7.75;100.00
34034;BME280;63481;52.588;22.472;2022-10-28T04:39:56;101202.05;;;7.74;100.00
34034;BME280;63481;52.588;22.472;2022-10-28T04:40:47;101199.05;;;7.73;100.00
34034;BME280;63481;52.588;22.472;2022-10-28T04:41:38;101203.69;;;7.75;100.00
34034;BME280;63481;52.588;22.472;2022-10-28T04:42:28;101199.05;;;7.73;100.00
34034;BME280;63481;52.588;22.472;2022-10-28T04:43:19;101198.53;;;7.70;100.00
34034;BME280;63481;52.588;22.472;2022-10-28T04:44:09;101202.34;;;7.67;100.00
34034;BME280;63481;52.588;22.472;2022-10-28T04:45:00;101202.34;;;7.67;100.00
34034;BME280;63481;52.588;22.472;2022-10-28T04:45:50;101199.03;;;7.65;100.00
34034;BME280;63481;52.588;22.472;2022-10-28T04:46:41;101199.70;;;7.63;100.00
34034;BME280;63481;52.588;22.472;2022-10-28T04:47:32;101201.36;;;7.60;100.00
34034;BME280;63481;52.588;22.472;2022-10-28T04:48:22;101199.02;;;7.61;100.00
34034;BME280;63481;52.588;22.472;2022-10-28T04:49:13;101198.52;;;7.62;100.00
34034;BME280;63481;52.588;22.472;2022-10-28T04:50:04;101197.03;;;7.59;100.00
34034;BME280;63481;52.588;22.472;2022-10-28T04:50:56;101197.20;;;7.58;100.00
34034;BME280;63481;52.588;22.472;2022-10-28T04:51:46;101198.36;;;7.55;100.00
34034;BME280;63481;52.588;22.472;2022-10-28T04:52:36;101195.52;;;7.53;100.00
34034;BME280;63481;52.588;22.472;2022-10-28T04:53:27;101189.89;;;7.52;100.00
34034;BME280;63481;52.588;22.472;2022-10-28T04:54:17;101194.85;;;7.51;100.00
34034;BME280;63481;52.588;22.472;2022-10-28T04:55:08;101193.52;;;7.51;100.00
34034;BME280;63481;52.588;22.472;2022-10-28T04:55:58;101191.36;;;7.50;100.00
34034;BME280;63481;52.588;22.472;2022-10-28T04:56:49;101196.67;;;7.50;100.00
34034;BME280;63481;52.588;22.472;2022-10-28T04:57:39;101188.88;;;7.49;100.00
34034;BME280;63481;52.588;22.472;2022-10-28T04:58:30;101195.52;;;7.49;100.00
34034;BME280;63481;52.588;22.472;2022-10-28T04:59:20;101196.36;;;7.49;100.00
34034;BME280;63481;52.588;22.472;2022-10-28T05:00:10;101194.38;;;7.47;100.00
34034;BME280;63481;52.588;22.472;2022-10-28T05:01:06;101198.84;;;7.47;100.00
34034;BME280;63481;52.588;22.472;2022-10-28T05:01:57;101196.33;;;7.45;100.00
34034;BME280;63481;52.588;22.472;2022-10-28T05:02:47;101193.86;;;7.44;100.00